Elk, Wisconsin
Current Conditions -  °F | °C
As of 8:35 AM on Tuesday 21 Oct 2014 (Local Time) from KPBH Reporting Station
Overcast Overcast  
Wind Chill: 35°   Ceiling: 1300
Heat Index: 38°   Visibility: 10mi
Dew Point: 34°   Wind: 5mph
Humidity: 84%   Direction: 40°NE
Pressure: 30.21"   Gusts: NA
Location:  45.7439°N, 90.2959°W
Report Text: KPBH 211335Z AUTO 04004KT 10SM OVC013 04/01 A3021 RMK AO2 T00350010
Loading
Personal Weather Stations






























Interactive Weather Map
Tropical Storm Tracking
New forecast layout! Learn more

10-Day Weather Forecast

Advertisements
Track Severe Weather on mobile